sensor_id;sensor_type;location;lat;lon;timestamp;pressure;altitude;pressure_sealevel;temperature;humidity
25722;BME280;13578;53.450;15.496;2023-03-23T00:01:00;98803.34;;;8.49;100.00
25722;BME280;13578;53.450;15.496;2023-03-23T00:04:01;98816.03;;;8.50;100.00
25722;BME280;13578;53.450;15.496;2023-03-23T00:07:02;98807.09;;;8.48;100.00
25722;BME280;13578;53.450;15.496;2023-03-23T00:10:03;98805.50;;;8.45;100.00
25722;BME280;13578;53.450;15.496;2023-03-23T00:13:04;98814.56;;;8.46;100.00
25722;BME280;13578;53.450;15.496;2023-03-23T00:16:05;98802.19;;;8.41;100.00
25722;BME280;13578;53.450;15.496;2023-03-23T00:19:08;98795.16;;;8.39;100.00
25722;BME280;13578;53.450;15.496;2023-03-23T00:22:09;98787.41;;;8.34;100.00
25722;BME280;13578;53.450;15.496;2023-03-23T00:25:09;98781.81;;;8.26;100.00
25722;BME280;13578;53.450;15.496;2023-03-23T00:28:10;98772.06;;;8.14;100.00
25722;BME280;13578;53.450;15.496;2023-03-23T00:31:13;98767.22;;;8.07;100.00
25722;BME280;13578;53.450;15.496;2023-03-23T00:34:16;98757.41;;;8.05;100.00
25722;BME280;13578;53.450;15.496;2023-03-23T00:37:19;98763.44;;;8.08;100.00
25722;BME280;13578;53.450;15.496;2023-03-23T00:40:20;98753.09;;;8.02;100.00
25722;BME280;13578;53.450;15.496;2023-03-23T00:43:21;98747.03;;;8.08;100.00
25722;BME280;13578;53.450;15.496;2023-03-23T00:46:24;98752.25;;;8.02;100.00
25722;BME280;13578;53.450;15.496;2023-03-23T00:49:25;98745.34;;;8.07;100.00
25722;BME280;13578;53.450;15.496;2023-03-23T00:52:26;98739.13;;;8.15;100.00
25722;BME280;13578;53.450;15.496;2023-03-23T00:55:27;98739.22;;;8.33;100.00
25722;BME280;13578;53.450;15.496;2023-03-23T00:58:27;98736.84;;;8.48;100.00
25722;BME280;13578;53.450;15.496;2023-03-23T01:01:29;98726.06;;;8.47;100.00
25722;BME280;13578;53.450;15.496;2023-03-23T01:04:29;98720.44;;;8.58;100.00
25722;BME280;13578;53.450;15.496;2023-03-23T01:07:31;98718.34;;;8.70;100.00
25722;BME280;13578;53.450;15.496;2023-03-23T01:10:33;98734.19;;;8.94;100.00
25722;BME280;13578;53.450;15.496;2023-03-23T01:13:34;98728.16;;;8.90;100.00
25722;BME280;13578;53.450;15.496;2023-03-23T01:16:34;98731.75;;;8.91;100.00
25722;BME280;13578;53.450;15.496;2023-03-23T01:19:35;98718.06;;;8.91;100.00
25722;BME280;13578;53.450;15.496;2023-03-23T01:22:38;98723.53;;;8.91;100.00
25722;BME280;13578;53.450;15.496;2023-03-23T01:25:39;98723.91;;;8.96;100.00
25722;BME280;13578;53.450;15.496;2023-03-23T01:28:40;98719.31;;;8.97;100.00
25722;BME280;13578;53.450;15.496;2023-03-23T01:31:41;98709.22;;;8.97;100.00
25722;BME280;13578;53.450;15.496;2023-03-23T01:34:42;98712.69;;;8.99;100.00
25722;BME280;13578;53.450;15.496;2023-03-23T01:37:43;98706.94;;;8.93;100.00
25722;BME280;13578;53.450;15.496;2023-03-23T01:40:44;98708.47;;;9.05;100.00
25722;BME280;13578;53.450;15.496;2023-03-23T01:43:58;98701.75;;;9.17;100.00
25722;BME280;13578;53.450;15.496;2023-03-23T01:47:01;98698.53;;;9.22;100.00
25722;BME280;13578;53.450;15.496;2023-03-23T01:50:02;98697.53;;;9.23;100.00
25722;BME280;13578;53.450;15.496;2023-03-23T01:53:05;98697.97;;;9.36;100.00
25722;BME280;13578;53.450;15.496;2023-03-23T01:56:09;98701.44;;;9.38;100.00
25722;BME280;13578;53.450;15.496;2023-03-23T01:59:12;98686.56;;;9.41;100.00
25722;BME280;13578;53.450;15.496;2023-03-23T02:02:14;98686.28;;;9.52;100.00
25722;BME280;13578;53.450;15.496;2023-03-23T02:05:38;98687.78;;;9.65;100.00
25722;BME280;13578;53.450;15.496;2023-03-23T02:08:41;98676.66;;;9.66;100.00
25722;BME280;13578;53.450;15.496;2023-03-23T02:11:45;98675.56;;;9.59;100.00
25722;BME280;13578;53.450;15.496;2023-03-23T02:14:46;98678.50;;;9.58;100.00
25722;BME280;13578;53.450;15.496;2023-03-23T02:24:59;98683.16;;;9.65;100.00
25722;BME280;13578;53.450;15.496;2023-03-23T02:28:31;98683.63;;;9.61;100.00
25722;BME280;13578;53.450;15.496;2023-03-23T02:34:57;98670.59;;;9.81;100.00
25722;BME280;13578;53.450;15.496;2023-03-23T02:38:04;98674.53;;;9.78;100.00
25722;BME280;13578;53.450;15.496;2023-03-23T02:41:08;98676.25;;;9.79;100.00
25722;BME280;13578;53.450;15.496;2023-03-23T02:44:12;98669.19;;;9.77;100.00
25722;BME280;13578;53.450;15.496;2023-03-23T02:47:25;98659.94;;;9.78;100.00
25722;BME280;13578;53.450;15.496;2023-03-23T02:50:28;98655.47;;;9.77;100.00
25722;BME280;13578;53.450;15.496;2023-03-23T02:53:33;98659.25;;;9.76;100.00
25722;BME280;13578;53.450;15.496;2023-03-23T02:56:35;98650.16;;;9.75;100.00
25722;BME280;13578;53.450;15.496;2023-03-23T02:59:36;98656.66;;;9.74;100.00
25722;BME280;13578;53.450;15.496;2023-03-23T03:02:38;98661.94;;;9.67;100.00
25722;BME280;13578;53.450;15.496;2023-03-23T03:19:15;98645.09;;;9.62;100.00
25722;BME280;13578;53.450;15.496;2023-03-23T03:22:19;98631.38;;;9.54;100.00
25722;BME280;13578;53.450;15.496;2023-03-23T03:25:21;98614.97;;;9.62;100.00
25722;BME280;13578;53.450;15.496;2023-03-23T03:28:23;98614.97;;;9.62;100.00
25722;BME280;13578;53.450;15.496;2023-03-23T03:31:33;98605.31;;;9.50;100.00
25722;BME280;13578;53.450;15.496;2023-03-23T03:34:36;98602.28;;;9.53;100.00
25722;BME280;13578;53.450;15.496;2023-03-23T03:37:38;98600.56;;;9.52;100.00
25722;BME280;13578;53.450;15.496;2023-03-23T03:40:40;98594.72;;;9.55;100.00
25722;BME280;13578;53.450;15.496;2023-03-23T03:43:40;98599.84;;;9.50;100.00
25722;BME280;13578;53.450;15.496;2023-03-23T03:46:41;98599.72;;;9.60;100.00
25722;BME280;13578;53.450;15.496;2023-03-23T03:49:42;98592.88;;;9.56;100.00
25722;BME280;13578;53.450;15.496;2023-03-23T03:52:42;98596.78;;;9.53;100.00
25722;BME280;13578;53.450;15.496;2023-03-23T03:55:44;98596.31;;;9.58;100.00
25722;BME280;13578;53.450;15.496;2023-03-23T03:58:45;98597.66;;;9.53;100.00
25722;BME280;13578;53.450;15.496;2023-03-23T04:01:48;98594.72;;;9.47;100.00
25722;BME280;13578;53.450;15.496;2023-03-23T04:04:54;98590.66;;;9.59;100.00
25722;BME280;13578;53.450;15.496;2023-03-23T04:07:54;98583.47;;;9.58;100.00
25722;BME280;13578;53.450;15.496;2023-03-23T04:11:02;98589.44;;;9.53;100.00
25722;BME280;13578;53.450;15.496;2023-03-23T04:14:02;98586.22;;;9.58;100.00
25722;BME280;13578;53.450;15.496;2023-03-23T04:17:03;98587.72;;;9.52;100.00
25722;BME280;13578;53.450;15.496;2023-03-23T04:20:04;98592.22;;;9.62;100.00
25722;BME280;13578;53.450;15.496;2023-03-23T04:23:17;98576.28;;;9.57;100.00
25722;BME280;13578;53.450;15.496;2023-03-23T04:26:20;98591.63;;;9.50;100.00
25722;BME280;13578;53.450;15.496;2023-03-23T04:29:20;98588.88;;;9.50;100.00
25722;BME280;13578;53.450;15.496;2023-03-23T04:32:21;98582.22;;;9.52;100.00
25722;BME280;13578;53.450;15.496;2023-03-23T04:35:25;98574.13;;;9.43;100.00
25722;BME280;13578;53.450;15.496;2023-03-23T04:38:27;98593.34;;;9.51;100.00
25722;BME280;13578;53.450;15.496;2023-03-23T04:41:28;98583.41;;;9.50;100.00
25722;BME280;13578;53.450;15.496;2023-03-23T04:44:29;98578.41;;;9.45;100.00
25722;BME280;13578;53.450;15.496;2023-03-23T04:47:35;98583.41;;;9.50;100.00
25722;BME280;13578;53.450;15.496;2023-03-23T04:50:40;98582.34;;;9.43;100.00
25722;BME280;13578;53.450;15.496;2023-03-23T04:53:40;98597.44;;;9.47;100.00
25722;BME280;13578;53.450;15.496;2023-03-23T04:56:41;98595.00;;;9.44;100.00
25722;BME280;13578;53.450;15.496;2023-03-23T04:59:42;98586.69;;;9.53;100.00
25722;BME280;13578;53.450;15.496;2023-03-23T05:02:44;98603.53;;;9.41;100.00
25722;BME280;13578;53.450;15.496;2023-03-23T05:05:47;98599.72;;;9.33;100.00
25722;BME280;13578;53.450;15.496;2023-03-23T05:08:52;98592.38;;;9.34;100.00
25722;BME280;13578;53.450;15.496;2023-03-23T05:11:52;98593.63;;;9.21;100.00
25722;BME280;13578;53.450;15.496;2023-03-23T05:14:53;98604.22;;;9.16;100.00
25722;BME280;13578;53.450;15.496;2023-03-23T05:17:54;98599.53;;;9.09;100.00
25722;BME280;13578;53.450;15.496;2023-03-23T05:20:59;98587.88;;;9.06;100.00
25722;BME280;13578;53.450;15.496;2023-03-23T05:24:00;98584.16;;;8.89;100.00
25722;BME280;13578;53.450;15.496;2023-03-23T05:27:01;98591.66;;;8.87;100.00
25722;BME280;13578;53.450;15.496;2023-03-23T05:30:03;98589.00;;;8.78;100.00
25722;BME280;13578;53.450;15.496;2023-03-23T05:33:04;98586.97;;;8.80;100.00
25722;BME280;13578;53.450;15.496;2023-03-23T05:36:05;98572.84;;;8.66;100.00
25722;BME280;13578;53.450;15.496;2023-03-23T05:39:11;98573.31;;;8.62;100.00
25722;BME280;13578;53.450;15.496;2023-03-23T05:42:13;98555.47;;;8.57;100.00
25722;BME280;13578;53.450;15.496;2023-03-23T05:45:13;98561.66;;;8.60;100.00
25722;BME280;13578;53.450;15.496;2023-03-23T05:48:14;98571.75;;;8.59;100.00
25722;BME280;13578;53.450;15.496;2023-03-23T05:51:14;98572.44;;;8.61;100.00
25722;BME280;13578;53.450;15.496;2023-03-23T05:54:15;98569.00;;;8.59;100.00
25722;BME280;13578;53.450;15.496;2023-03-23T05:57:17;98569.94;;;8.50;100.00
25722;BME280;13578;53.450;15.496;2023-03-23T06:00:18;98556.69;;;8.45;100.00
25722;BME280;13578;53.450;15.496;2023-03-23T06:03:19;98542.09;;;8.36;100.00
25722;BME280;13578;53.450;15.496;2023-03-23T06:06:21;98543.22;;;8.34;100.00
25722;BME280;13578;53.450;15.496;2023-03-23T06:09:21;98533.72;;;8.38;100.00
25722;BME280;13578;53.450;15.496;2023-03-23T06:12:23;98517.78;;;8.33;100.00
25722;BME280;13578;53.450;15.496;2023-03-23T06:15:24;98522.47;;;8.41;100.00
25722;BME280;13578;53.450;15.496;2023-03-23T06:18:29;98516.78;;;8.34;100.00
25722;BME280;13578;53.450;15.496;2023-03-23T06:21:34;98527.09;;;8.40;100.00
25722;BME280;13578;53.450;15.496;2023-03-23T06:24:34;98525.69;;;8.36;100.00
25722;BME280;13578;53.450;15.496;2023-03-23T06:27:35;98516.16;;;8.40;100.00
25722;BME280;13578;53.450;15.496;2023-03-23T06:30:36;98530.53;;;8.42;100.00
25722;BME280;13578;53.450;15.496;2023-03-23T06:33:38;98517.41;;;8.28;100.00
25722;BME280;13578;53.450;15.496;2023-03-23T06:36:39;98529.19;;;8.29;100.00
25722;BME280;13578;53.450;15.496;2023-03-23T06:39:40;98525.50;;;8.20;100.00
25722;BME280;13578;53.450;15.496;2023-03-23T06:42:41;98516.31;;;8.21;100.00
25722;BME280;13578;53.450;15.496;2023-03-23T06:45:41;98514.03;;;8.16;100.00
25722;BME280;13578;53.450;15.496;2023-03-23T06:48:42;98533.94;;;8.26;100.00
25722;BME280;13578;53.450;15.496;2023-03-23T06:51:43;98522.94;;;8.18;100.00
25722;BME280;13578;53.450;15.496;2023-03-23T06:54:43;98531.53;;;8.23;100.00
25722;BME280;13578;53.450;15.496;2023-03-23T06:57:44;98536.84;;;8.25;100.00
25722;BME280;13578;53.450;15.496;2023-03-23T07:00:45;98532.28;;;8.16;100.00
25722;BME280;13578;53.450;15.496;2023-03-23T07:03:46;98530.97;;;8.20;100.00
25722;BME280;13578;53.450;15.496;2023-03-23T07:06:46;98525.19;;;8.23;100.00
25722;BME280;13578;53.450;15.496;2023-03-23T07:09:47;98533.31;;;8.15;100.00
25722;BME280;13578;53.450;15.496;2023-03-23T07:12:48;98538.84;;;8.23;100.00
25722;BME280;13578;53.450;15.496;2023-03-23T07:15:48;98539.81;;;8.14;100.00
25722;BME280;13578;53.450;15.496;2023-03-23T07:18:50;98543.69;;;8.11;100.00
25722;BME280;13578;53.450;15.496;2023-03-23T07:21:51;98546.66;;;8.18;100.00
25722;BME280;13578;53.450;15.496;2023-03-23T07:24:52;98546.28;;;8.13;100.00
25722;BME280;13578;53.450;15.496;2023-03-23T07:27:52;98545.66;;;8.19;100.00
25722;BME280;13578;53.450;15.496;2023-03-23T07:30:53;98557.31;;;8.21;100.00
25722;BME280;13578;53.450;15.496;2023-03-23T07:33:54;98556.69;;;8.27;100.00
25722;BME280;13578;53.450;15.496;2023-03-23T07:36:54;98553.63;;;8.30;100.00
25722;BME280;13578;53.450;15.496;2023-03-23T07:39:56;98545.75;;;8.27;100.00
25722;BME280;13578;53.450;15.496;2023-03-23T07:42:57;98539.66;;;8.33;100.00
25722;BME280;13578;53.450;15.496;2023-03-23T07:45:58;98526.63;;;8.45;100.00
25722;BME280;13578;53.450;15.496;2023-03-23T07:48:58;98525.06;;;8.42;100.00
25722;BME280;13578;53.450;15.496;2023-03-23T07:52:00;98510.47;;;8.52;100.00
25722;BME280;13578;53.450;15.496;2023-03-23T07:55:02;98514.88;;;8.63;100.00
25722;BME280;13578;53.450;15.496;2023-03-23T07:58:04;98525.84;;;8.71;100.00
25722;BME280;13578;53.450;15.496;2023-03-23T08:01:04;98516.81;;;8.70;100.00
25722;BME280;13578;53.450;15.496;2023-03-23T08:04:05;98518.91;;;8.77;100.00
25722;BME280;13578;53.450;15.496;2023-03-23T08:07:07;98528.81;;;8.78;100.00
25722;BME280;13578;53.450;15.496;2023-03-23T08:10:10;98524.91;;;8.80;100.00
25722;BME280;13578;53.450;15.496;2023-03-23T08:13:11;98524.38;;;8.77;100.00
25722;BME280;13578;53.450;15.496;2023-03-23T08:16:12;98519.91;;;8.76;100.00
25722;BME280;13578;53.450;15.496;2023-03-23T08:19:13;98518.25;;;8.83;100.00
25722;BME280;13578;53.450;15.496;2023-03-23T08:22:14;98518.66;;;8.88;100.00
25722;BME280;13578;53.450;15.496;2023-03-23T08:25:15;98515.97;;;8.96;100.00
25722;BME280;13578;53.450;15.496;2023-03-23T08:28:17;98522.50;;;9.03;100.00
25722;BME280;13578;53.450;15.496;2023-03-23T08:31:18;98522.50;;;9.03;100.00
25722;BME280;13578;53.450;15.496;2023-03-23T08:34:19;98520.19;;;9.09;100.00
25722;BME280;13578;53.450;15.496;2023-03-23T08:37:19;98517.59;;;9.07;100.00
25722;BME280;13578;53.450;15.496;2023-03-23T08:40:23;98521.38;;;9.06;100.00
25722;BME280;13578;53.450;15.496;2023-03-23T08:43:24;98529.41;;;9.08;100.00
25722;BME280;13578;53.450;15.496;2023-03-23T08:46:25;98524.25;;;9.04;100.00
25722;BME280;13578;53.450;15.496;2023-03-23T08:49:26;98531.44;;;9.05;100.00
25722;BME280;13578;53.450;15.496;2023-03-23T08:52:26;98526.84;;;9.06;100.00
25722;BME280;13578;53.450;15.496;2023-03-23T08:55:28;98531.13;;;9.09;100.00
25722;BME280;13578;53.450;15.496;2023-03-23T08:58:29;98525.66;;;9.09;100.00
25722;BME280;13578;53.450;15.496;2023-03-23T09:01:30;98525.50;;;9.10;100.00
25722;BME280;13578;53.450;15.496;2023-03-23T09:04:30;98530.31;;;9.16;100.00
25722;BME280;13578;53.450;15.496;2023-03-23T09:07:31;98529.00;;;9.20;100.00
25722;BME280;13578;53.450;15.496;2023-03-23T09:10:32;98533.81;;;9.27;100.00
25722;BME280;13578;53.450;15.496;2023-03-23T09:13:33;98522.03;;;9.08;100.00
25722;BME280;13578;53.450;15.496;2023-03-23T09:16:34;98525.53;;;9.18;100.00
25722;BME280;13578;53.450;15.496;2023-03-23T09:19:35;98534.34;;;9.30;100.00
25722;BME280;13578;53.450;15.496;2023-03-23T09:22:36;98531.94;;;9.27;100.00
25722;BME280;13578;53.450;15.496;2023-03-23T09:25:38;98542.34;;;9.24;100.00
25722;BME280;13578;53.450;15.496;2023-03-23T09:28:39;98519.44;;;9.25;100.00
25722;BME280;13578;53.450;15.496;2023-03-23T09:31:40;98511.81;;;9.36;100.00
25722;BME280;13578;53.450;15.496;2023-03-23T09:34:42;98515.13;;;9.48;100.00
25722;BME280;13578;53.450;15.496;2023-03-23T09:37:44;98520.44;;;9.50;100.00
25722;BME280;13578;53.450;15.496;2023-03-23T09:54:27;98544.63;;;9.63;100.00
25722;BME280;13578;53.450;15.496;2023-03-23T09:58:11;98558.53;;;9.69;100.00
25722;BME280;13578;53.450;15.496;2023-03-23T10:01:21;98559.28;;;9.80;100.00
25722;BME280;13578;53.450;15.496;2023-03-23T10:07:30;98566.13;;;9.84;100.00
25722;BME280;13578;53.450;15.496;2023-03-23T10:10:56;98563.59;;;9.91;100.00
25722;BME280;13578;53.450;15.496;2023-03-23T10:17:39;98542.91;;;9.96;100.00
25722;BME280;13578;53.450;15.496;2023-03-23T10:20:51;98550.16;;;10.06;100.00
25722;BME280;13578;53.450;15.496;2023-03-23T10:24:04;98558.38;;;10.14;100.00
25722;BME280;13578;53.450;15.496;2023-03-23T10:27:33;98559.09;;;10.24;100.00
25722;BME280;13578;53.450;15.496;2023-03-23T10:30:55;98557.25;;;10.33;100.00
25722;BME280;13578;53.450;15.496;2023-03-23T10:34:01;98556.09;;;10.44;100.00
25722;BME280;13578;53.450;15.496;2023-03-23T10:40:23;98548.81;;;11.10;100.00
25722;BME280;13578;53.450;15.496;2023-03-23T10:43:26;98544.97;;;11.44;100.00
25722;BME280;13578;53.450;15.496;2023-03-23T10:46:44;98564.91;;;11.30;100.00
25722;BME280;13578;53.450;15.496;2023-03-23T10:49:56;98570.06;;;11.41;100.00
25722;BME280;13578;53.450;15.496;2023-03-23T10:53:00;98577.59;;;11.56;100.00
25722;BME280;13578;53.450;15.496;2023-03-23T10:56:01;98585.94;;;11.79;100.00
25722;BME280;13578;53.450;15.496;2023-03-23T10:59:31;98583.34;;;11.86;100.00
25722;BME280;13578;53.450;15.496;2023-03-23T11:02:43;98592.38;;;11.47;100.00
25722;BME280;13578;53.450;15.496;2023-03-23T11:05:53;98605.59;;;11.43;100.00
25722;BME280;13578;53.450;15.496;2023-03-23T11:08:58;98598.91;;;11.29;100.00
25722;BME280;13578;53.450;15.496;2023-03-23T11:12:01;98577.63;;;11.39;100.00
25722;BME280;13578;53.450;15.496;2023-03-23T11:15:38;98584.44;;;11.68;100.00
25722;BME280;13578;53.450;15.496;2023-03-23T11:18:42;98576.38;;;11.58;100.00
25722;BME280;13578;53.450;15.496;2023-03-23T11:21:47;98587.88;;;11.54;100.00
25722;BME280;13578;53.450;15.496;2023-03-23T11:24:53;98588.53;;;11.64;100.00
25722;BME280;13578;53.450;15.496;2023-03-23T11:27:54;98573.25;;;11.62;100.00
25722;BME280;13578;53.450;15.496;2023-03-23T11:30:55;98575.81;;;11.71;100.00
25722;BME280;13578;53.450;15.496;2023-03-23T11:34:19;98587.97;;;11.94;100.00
25722;BME280;13578;53.450;15.496;2023-03-23T11:37:51;98592.78;;;12.00;100.00
25722;BME280;13578;53.450;15.496;2023-03-23T11:40:53;98590.81;;;12.17;100.00
25722;BME280;13578;53.450;15.496;2023-03-23T11:43:53;98589.84;;;12.01;100.00
25722;BME280;13578;53.450;15.496;2023-03-23T11:47:10;98599.59;;;12.12;100.00
25722;BME280;13578;53.450;15.496;2023-03-23T11:53:34;98591.53;;;12.11;100.00
25722;BME280;13578;53.450;15.496;2023-03-23T11:56:42;98611.09;;;12.16;100.00
25722;BME280;13578;53.450;15.496;2023-03-23T11:59:43;98609.22;;;12.16;100.00
25722;BME280;13578;53.450;15.496;2023-03-23T12:06:34;98607.66;;;12.22;100.00
25722;BME280;13578;53.450;15.496;2023-03-23T12:13:26;98608.34;;;12.16;100.00
25722;BME280;13578;53.450;15.496;2023-03-23T12:19:56;98609.44;;;12.06;100.00
25722;BME280;13578;53.450;15.496;2023-03-23T12:23:23;98606.50;;;12.08;100.00
25722;BME280;13578;53.450;15.496;2023-03-23T12:26:39;98615.47;;;12.02;100.00
25722;BME280;13578;53.450;15.496;2023-03-23T12:30:14;98600.50;;;11.96;100.00
25722;BME280;13578;53.450;15.496;2023-03-23T12:39:46;98620.94;;;12.10;100.00
25722;BME280;13578;53.450;15.496;2023-03-23T12:43:01;98619.16;;;12.26;100.00
25722;BME280;13578;53.450;15.496;2023-03-23T12:49:22;98634.47;;;12.28;100.00
25722;BME280;13578;53.450;15.496;2023-03-23T12:52:36;98620.41;;;12.15;100.00
25722;BME280;13578;53.450;15.496;2023-03-23T12:55:46;98594.44;;;12.17;100.00
25722;BME280;13578;53.450;15.496;2023-03-23T12:59:33;98610.56;;;12.20;100.00
25722;BME280;13578;53.450;15.496;2023-03-23T13:02:34;98604.84;;;12.30;100.00
25722;BME280;13578;53.450;15.496;2023-03-23T13:05:54;98599.00;;;12.33;100.00
25722;BME280;13578;53.450;15.496;2023-03-23T13:09:19;98601.72;;;12.42;100.00
25722;BME280;13578;53.450;15.496;2023-03-23T13:12:23;98596.25;;;12.33;100.00
25722;BME280;13578;53.450;15.496;2023-03-23T13:15:51;98603.66;;;12.33;100.00
25722;BME280;13578;53.450;15.496;2023-03-23T13:22:37;98615.72;;;12.23;100.00
25722;BME280;13578;53.450;15.496;2023-03-23T13:26:02;98608.09;;;12.34;100.00
25722;BME280;13578;53.450;15.496;2023-03-23T13:29:12;98600.44;;;12.21;100.00
25722;BME280;13578;53.450;15.496;2023-03-23T13:32:18;98600.94;;;12.25;100.00
25722;BME280;13578;53.450;15.496;2023-03-23T13:35:19;98590.47;;;12.20;100.00
25722;BME280;13578;53.450;15.496;2023-03-23T13:38:27;98600.06;;;12.24;100.00
25722;BME280;13578;53.450;15.496;2023-03-23T13:41:29;98615.31;;;12.35;100.00
25722;BME280;13578;53.450;15.496;2023-03-23T13:48:03;98598.50;;;12.30;100.00
25722;BME280;13578;53.450;15.496;2023-03-23T13:51:21;98612.06;;;12.31;100.00
25722;BME280;13578;53.450;15.496;2023-03-23T13:54:41;98609.06;;;12.49;100.00
25722;BME280;13578;53.450;15.496;2023-03-23T13:57:51;98609.72;;;12.60;100.00
25722;BME280;13578;53.450;15.496;2023-03-23T14:01:13;98609.97;;;12.73;100.00
25722;BME280;13578;53.450;15.496;2023-03-23T14:04:17;98614.75;;;12.79;100.00
25722;BME280;13578;53.450;15.496;2023-03-23T14:07:19;98611.06;;;12.95;100.00
25722;BME280;13578;53.450;15.496;2023-03-23T14:10:20;98619.06;;;13.05;100.00
25722;BME280;13578;53.450;15.496;2023-03-23T14:13:23;98628.13;;;12.91;100.00
25722;BME280;13578;53.450;15.496;2023-03-23T14:16:45;98633.28;;;12.85;100.00
25722;BME280;13578;53.450;15.496;2023-03-23T14:19:51;98620.63;;;12.76;100.00
25722;BME280;13578;53.450;15.496;2023-03-23T14:22:56;98622.84;;;12.81;100.00
25722;BME280;13578;53.450;15.496;2023-03-23T14:26:00;98627.72;;;12.94;100.00
25722;BME280;13578;53.450;15.496;2023-03-23T14:29:11;98622.66;;;13.06;100.00
25722;BME280;13578;53.450;15.496;2023-03-23T14:32:16;98604.63;;;13.03;100.00
25722;BME280;13578;53.450;15.496;2023-03-23T14:35:29;98620.16;;;13.19;100.00
25722;BME280;13578;53.450;15.496;2023-03-23T14:38:30;98617.47;;;13.34;100.00
25722;BME280;13578;53.450;15.496;2023-03-23T14:41:33;98606.41;;;13.42;100.00
25722;BME280;13578;53.450;15.496;2023-03-23T14:44:46;98606.34;;;13.50;100.00
25722;BME280;13578;53.450;15.496;2023-03-23T14:48:02;98620.22;;;13.57;100.00
25722;BME280;13578;53.450;15.496;2023-03-23T14:51:05;98622.38;;;13.47;100.00
25722;BME280;13578;53.450;15.496;2023-03-23T14:54:08;98626.97;;;13.31;100.00
25722;BME280;13578;53.450;15.496;2023-03-23T14:57:29;98618.56;;;13.48;100.00
25722;BME280;13578;53.450;15.496;2023-03-23T15:00:33;98616.88;;;13.47;100.00
25722;BME280;13578;53.450;15.496;2023-03-23T15:03:39;98622.19;;;13.48;100.00
25722;BME280;13578;53.450;15.496;2023-03-23T15:06:46;98608.78;;;13.45;100.00
25722;BME280;13578;53.450;15.496;2023-03-23T15:09:49;98594.34;;;13.43;100.00
25722;BME280;13578;53.450;15.496;2023-03-23T15:12:50;98601.28;;;13.31;100.00
25722;BME280;13578;53.450;15.496;2023-03-23T15:16:04;98627.56;;;13.18;100.00
25722;BME280;13578;53.450;15.496;2023-03-23T15:19:16;98621.63;;;13.07;100.00
25722;BME280;13578;53.450;15.496;2023-03-23T15:22:27;98631.22;;;12.87;100.00
25722;BME280;13578;53.450;15.496;2023-03-23T15:25:31;98631.09;;;12.81;100.00
25722;BME280;13578;53.450;15.496;2023-03-23T15:28:39;98616.50;;;12.72;100.00
25722;BME280;13578;53.450;15.496;2023-03-23T15:31:50;98615.91;;;12.62;100.00
25722;BME280;13578;53.450;15.496;2023-03-23T15:34:52;98614.50;;;12.66;100.00
25722;BME280;13578;53.450;15.496;2023-03-23T15:38:04;98610.94;;;12.57;100.00
25722;BME280;13578;53.450;15.496;2023-03-23T15:41:06;98617.69;;;12.46;100.00
25722;BME280;13578;53.450;15.496;2023-03-23T15:44:29;98618.53;;;12.07;100.00
25722;BME280;13578;53.450;15.496;2023-03-23T15:50:40;98645.59;;;11.62;100.00
25722;BME280;13578;53.450;15.496;2023-03-23T15:53:41;98642.16;;;11.43;100.00
25722;BME280;13578;53.450;15.496;2023-03-23T15:56:43;98670.81;;;11.41;100.00
25722;BME280;13578;53.450;15.496;2023-03-23T15:59:44;98711.25;;;10.89;100.00
25722;BME280;13578;53.450;15.496;2023-03-23T16:02:46;98685.88;;;10.44;100.00
25722;BME280;13578;53.450;15.496;2023-03-23T16:05:48;98648.47;;;10.09;100.00
25722;BME280;13578;53.450;15.496;2023-03-23T16:08:49;98642.63;;;10.04;100.00
25722;BME280;13578;53.450;15.496;2023-03-23T16:11:50;98625.09;;;9.88;100.00
25722;BME280;13578;53.450;15.496;2023-03-23T16:14:50;98625.50;;;9.75;100.00
25722;BME280;13578;53.450;15.496;2023-03-23T16:17:52;98618.47;;;9.73;100.00
25722;BME280;13578;53.450;15.496;2023-03-23T16:20:53;98630.81;;;9.68;100.00
25722;BME280;13578;53.450;15.496;2023-03-23T16:23:55;98621.16;;;9.64;100.00
25722;BME280;13578;53.450;15.496;2023-03-23T16:26:56;98618.22;;;9.58;100.00
25722;BME280;13578;53.450;15.496;2023-03-23T16:29:56;98628.66;;;9.54;100.00
25722;BME280;13578;53.450;15.496;2023-03-23T16:32:59;98633.06;;;9.55;100.00
25722;BME280;13578;53.450;15.496;2023-03-23T16:36:00;98642.28;;;9.46;100.00
25722;BME280;13578;53.450;15.496;2023-03-23T16:39:01;98640.38;;;9.46;100.00
25722;BME280;13578;53.450;15.496;2023-03-23T16:42:02;98649.47;;;9.47;100.00
25722;BME280;13578;53.450;15.496;2023-03-23T16:45:03;98649.94;;;9.42;100.00
25722;BME280;13578;53.450;15.496;2023-03-23T16:48:04;98648.06;;;9.43;100.00
25722;BME280;13578;53.450;15.496;2023-03-23T16:51:05;98648.00;;;9.34;100.00
25722;BME280;13578;53.450;15.496;2023-03-23T16:54:06;98646.66;;;9.38;100.00
25722;BME280;13578;53.450;15.496;2023-03-23T16:57:07;98650.50;;;9.46;100.00
25722;BME280;13578;53.450;15.496;2023-03-23T17:00:11;98661.59;;;9.44;100.00
25722;BME280;13578;53.450;15.496;2023-03-23T17:03:14;98661.75;;;9.43;100.00
25722;BME280;13578;53.450;15.496;2023-03-23T17:06:15;98677.25;;;9.34;100.00
25722;BME280;13578;53.450;15.496;2023-03-23T17:09:16;98668.88;;;9.35;100.00
25722;BME280;13578;53.450;15.496;2023-03-23T17:12:16;98666.69;;;9.39;100.00
25722;BME280;13578;53.450;15.496;2023-03-23T17:15:17;98658.94;;;9.34;100.00
25722;BME280;13578;53.450;15.496;2023-03-23T17:18:18;98654.16;;;9.36;100.00
25722;BME280;13578;53.450;15.496;2023-03-23T17:21:18;98657.63;;;9.38;100.00
25722;BME280;13578;53.450;15.496;2023-03-23T17:24:21;98679.63;;;9.29;100.00